Time;durP1;ratioP1;P1;durP2;ratioP2;P2;SDS_P1;SDS_P2;PMS_P1;PMS_P2;Temp;Humidity;BMP_temperature;BMP_pressure;BME280_temperature;BME280_humidity;BME280_pressure;Samples;Min_cycle;Max_cycle;Signal;HPM_P1;HPM_P2
2022/09/01 00:00:00;;;;;;;;;;;;;;;24.54;60.62;99969.59;7313757;19;128898;-38
2022/09/01 00:02:27;;;;;;;;;;;;;;;24.54;60.23;99966.97;7312506;19;131081;-37
2022/09/01 00:04:57;;;;;;;;;;;;;;;24.53;60.59;99970.59;7311856;19;130372;-37
2022/09/01 00:07:23;;;;;;;;;;;;;;;24.55;60.61;99965.97;7312527;19;128898;-37
2022/09/01 00:09:48;;;;;;;;;;;;;;;24.55;60.70;99965.97;7305122;19;130439;-38
2022/09/01 00:12:13;;;;;;;;;;;;;;;24.43;60.61;99947.81;7302789;19;129507;-39
2022/09/01 00:14:39;;;;;;;;;;;;;;;24.55;60.91;99968.59;7296668;19;131139;-38
2022/09/01 00:17:06;;;;;;;;;;;;;;;24.55;60.43;99972.06;7293346;19;130219;-38
2022/09/01 00:19:32;;;;;;;;;;;;;;;24.55;60.49;99972.06;7307313;19;130282;-38
2022/09/01 00:22:01;;;;;;;;;;;;;;;24.56;60.93;99978.16;7310316;19;131041;-39
2022/09/01 00:24:27;;;;;;;;;;;;;;;24.58;60.68;99974.41;7313134;19;130291;-38
2022/09/01 00:26:53;;;;;;;;;;;;;;;24.56;60.90;99973.72;7313203;19;129140;-38
2022/09/01 00:29:18;;;;;;;;;;;;;;;24.56;61.01;99972.91;7313371;19;130554;-38
2022/09/01 00:31:44;;;;;;;;;;;;;;;24.55;60.26;99981.75;7313635;19;131182;-38
2022/09/01 00:34:10;;;;;;;;;;;;;;;24.56;60.26;99967.66;7310355;19;130956;-38
2022/09/01 00:36:36;;;;;;;;;;;;;;;24.57;60.17;99979.81;7310776;19;129010;-38
2022/09/01 00:39:01;;;;;;;;;;;;;;;24.56;60.17;99975.53;7310197;19;128950;-38
2022/09/01 00:41:27;;;;;;;;;;;;;;;24.55;60.72;99971.22;7311595;19;130344;-39
2022/09/01 00:43:55;;;;;;;;;;;;;;;24.54;60.16;99967.81;7312441;19;130464;-37
2022/09/01 00:46:28;;;;;;;;;;;;;;;24.54;60.30;99969.59;7312658;19;129203;-38
2022/09/01 00:48:55;;;;;;;;;;;;;;;24.54;60.86;99965.16;7314394;19;129743;-38
2022/09/01 00:51:20;;;;;;;;;;;;;;;24.45;61.00;99950.28;7307298;19;130789;-36
2022/09/01 00:53:46;;;;;;;;;;;;;;;24.54;60.09;99959.91;7311810;19;130475;-38
2022/09/01 00:56:12;;;;;;;;;;;;;;;24.55;60.28;99965.97;7311304;19;129424;-38
2022/09/01 00:58:38;;;;;;;;;;;;;;;24.54;60.13;99959.91;7310455;19;130367;-38
2022/09/01 01:01:04;;;;;;;;;;;;;;;24.55;60.44;99951.03;7311266;19;130804;-38
2022/09/01 01:03:30;;;;;;;;;;;;;;;24.55;60.88;99955.47;7312042;19;129421;-36
2022/09/01 01:05:56;;;;;;;;;;;;;;;24.55;60.60;99953.66;7312904;19;129193;-37
2022/09/01 01:08:32;;;;;;;;;;;;;;;24.54;60.50;99949.41;7312654;19;129827;-37
2022/09/01 01:10:58;;;;;;;;;;;;;;;24.53;60.75;99952.19;7311271;19;130236;-38
2022/09/01 01:13:24;;;;;;;;;;;;;;;24.55;60.67;99955.47;7310128;19;129817;-38
2022/09/01 01:15:50;;;;;;;;;;;;;;;24.54;60.69;99948.56;7295454;19;131007;-38
2022/09/01 01:18:16;;;;;;;;;;;;;;;24.53;60.14;99946.94;7298059;19;130994;-38
2022/09/01 01:23:35;;;;;;;;;;;;;;;24.54;60.95;99944.13;7295535;19;130768;-38
2022/09/01 01:26:02;;;;;;;;;;;;;;;24.56;60.21;99951.88;7301568;19;131028;-37
2022/09/01 01:28:30;;;;;;;;;;;;;;;24.57;60.19;99958.78;7312499;19;129854;-37
2022/09/01 01:31:12;;;;;;;;;;;;;;;24.56;60.41;99952.69;7317298;19;130017;-35
2022/09/01 01:33:45;;;;;;;;;;;;;;;24.56;60.81;99960.56;7318393;19;129686;-38
2022/09/01 01:36:13;;;;;;;;;;;;;;;24.56;60.83;99962.38;7317346;19;129163;-38
2022/09/01 01:38:41;;;;;;;;;;;;;;;24.55;60.62;99958.09;7317085;19;128870;-38
2022/09/01 01:41:07;;;;;;;;;;;;;;;24.55;60.38;99960.72;7317482;19;129878;-37
2022/09/01 01:43:33;;;;;;;;;;;;;;;24.55;60.59;99966.81;7314578;19;130344;-37
2022/09/01 01:46:01;;;;;;;;;;;;;;;24.56;60.76;99962.38;7318555;19;129000;-38
2022/09/01 01:48:27;;;;;;;;;;;;;;;24.56;60.78;99967.66;7318612;19;130138;-38
2022/09/01 01:50:53;;;;;;;;;;;;;;;24.55;60.28;99964.19;7317148;19;129412;-38
2022/09/01 01:53:19;;;;;;;;;;;;;;;24.43;60.74;99942.53;7317515;19;130402;-38
2022/09/01 01:55:45;;;;;;;;;;;;;;;24.54;60.14;99959.06;7318205;19;129000;-38
2022/09/01 01:58:10;;;;;;;;;;;;;;;24.48;60.27;99949.16;7316941;19;129673;-36
2022/09/01 02:00:36;;;;;;;;;;;;;;;24.46;60.14;99942.25;7317826;19;129166;-38
2022/09/01 02:03:01;;;;;;;;;;;;;;;24.54;60.19;99964.34;7317504;19;130334;-38
2022/09/01 02:05:31;;;;;;;;;;;;;;;24.54;60.60;99961.72;7317565;19;129943;-37
2022/09/01 02:08:00;;;;;;;;;;;;;;;24.54;60.12;99959.06;7317406;19;130649;-38
2022/09/01 02:10:29;;;;;;;;;;;;;;;24.52;60.43;99956.59;7311851;19;130690;-37
2022/09/01 02:13:02;;;;;;;;;;;;;;;24.54;60.04;99965.16;7317092;19;130370;-37
2022/09/01 02:15:28;;;;;;;;;;;;;;;24.55;60.28;99963.34;7317915;19;129618;-37
2022/09/01 02:17:59;;;;;;;;;;;;;;;24.56;60.72;99957.94;7314969;19;129523;-38
2022/09/01 02:20:28;;;;;;;;;;;;;;;24.55;60.21;99958.09;7316641;19;130138;-37
2022/09/01 02:22:54;;;;;;;;;;;;;;;24.53;60.73;99952.97;7318228;19;130545;-37
2022/09/01 02:25:21;;;;;;;;;;;;;;;24.52;60.29;99950.50;7316978;19;129666;-37
2022/09/01 02:27:52;;;;;;;;;;;;;;;24.53;60.57;99955.63;7315053;19;129009;-38
2022/09/01 02:30:17;;;;;;;;;;;;;;;24.53;60.56;99947.72;7316150;19;130332;-37
2022/09/01 02:32:42;;;;;;;;;;;;;;;24.42;60.34;99935.66;7317413;19;129227;-38
2022/09/01 02:35:08;;;;;;;;;;;;;;;24.54;60.44;99948.56;7316959;19;129121;-38
2022/09/01 02:37:34;;;;;;;;;;;;;;;24.54;59.95;99952.03;7315929;19;129184;-37
2022/09/01 02:40:00;;;;;;;;;;;;;;;24.53;60.10;99941.66;7315257;19;130796;-38
2022/09/01 02:42:28;;;;;;;;;;;;;;;24.53;60.53;99944.28;7315712;19;130050;-38
2022/09/01 02:44:54;;;;;;;;;;;;;;;24.52;59.93;99942.63;7317640;19;128745;-38
2022/09/01 02:47:19;;;;;;;;;;;;;;;24.46;59.90;99933.56;7313722;19;129512;-35
2022/09/01 02:49:45;;;;;;;;;;;;;;;24.52;60.66;99940.00;7314695;19;131451;-36
2022/09/01 02:52:12;;;;;;;;;;;;;;;24.51;60.67;99939.16;7316487;19;129230;-38
2022/09/01 02:54:44;;;;;;;;;;;;;;;24.54;60.04;99938.03;7317061;19;129096;-38
2022/09/01 02:57:09;;;;;;;;;;;;;;;24.53;60.30;99941.66;7315126;19;129067;-38
2022/09/01 02:59:36;;;;;;;;;;;;;;;24.54;60.47;99938.03;7313050;19;129431;-38
2022/09/01 03:02:01;;;;;;;;;;;;;;;24.53;60.14;99939.03;7316369;19;131102;-38
2022/09/01 03:04:26;;;;;;;;;;;;;;;24.54;60.40;99932.78;7315086;19;128851;-38
2022/09/01 03:06:53;;;;;;;;;;;;;;;24.55;59.97;99944.94;7315559;19;129042;-38
2022/09/01 03:09:19;;;;;;;;;;;;;;;24.54;60.37;99948.56;7314517;19;130021;-35
2022/09/01 03:11:46;;;;;;;;;;;;;;;24.43;60.62;99931.19;7316080;19;130407;-38
2022/09/01 03:14:12;;;;;;;;;;;;;;;24.42;60.34;99930.41;7315949;19;129497;-38
2022/09/01 03:16:38;;;;;;;;;;;;;;;24.54;60.26;99940.69;7314735;19;130665;-37
2022/09/01 03:19:06;;;;;;;;;;;;;;;24.53;60.52;99947.72;7307743;19;131078;-38
2022/09/01 03:21:32;;;;;;;;;;;;;;;24.53;60.10;99949.56;7297892;19;132059;-38
2022/09/01 03:24:00;;;;;;;;;;;;;;;24.53;60.75;99942.47;7299923;19;130128;-38
2022/09/01 03:26:26;;;;;;;;;;;;;;;24.53;60.14;99944.28;7297377;19;131131;-38
2022/09/01 03:28:51;;;;;;;;;;;;;;;24.53;59.95;99941.66;7299150;19;130117;-38
2022/09/01 03:31:17;;;;;;;;;;;;;;;24.54;60.74;99943.31;7306632;19;130926;-37
2022/09/01 03:33:43;;;;;;;;;;;;;;;24.56;60.08;99936.91;7316046;19;129434;-38
2022/09/01 03:36:17;;;;;;;;;;;;;;;24.49;60.39;99930.63;7313310;19;129175;-37
2022/09/01 03:38:43;;;;;;;;;;;;;;;24.55;60.21;99937.06;7314724;19;129644;-36
2022/09/01 03:41:09;;;;;;;;;;;;;;;24.52;59.49;99938.19;7314906;19;129754;-36
2022/09/01 03:43:34;;;;;;;;;;;;;;;24.43;60.28;99920.69;7314379;19;130001;-38
2022/09/01 03:45:59;;;;;;;;;;;;;;;24.55;59.96;99939.69;7314828;19;130489;-36
2022/09/01 03:48:27;;;;;;;;;;;;;;;24.53;60.27;99939.84;7314475;19;130028;-38
2022/09/01 03:50:53;;;;;;;;;;;;;;;24.53;60.53;99936.41;7310231;19;130506;-36
2022/09/01 03:53:21;;;;;;;;;;;;;;;24.53;60.25;99936.41;7311778;19;128927;-39
2022/09/01 03:55:47;;;;;;;;;;;;;;;24.51;60.48;99939.16;7307088;19;131242;-39
2022/09/01 03:58:17;;;;;;;;;;;;;;;24.44;60.63;99922.34;7312491;19;130424;-35
2022/09/01 04:00:43;;;;;;;;;;;;;;;24.53;60.32;99939.03;7312381;19;129839;-38
2022/09/01 04:03:11;;;;;;;;;;;;;;;24.54;60.17;99943.31;7311503;19;129268;-36
2022/09/01 04:05:37;;;;;;;;;;;;;;;24.53;60.22;99947.72;7310648;19;130318;-37
2022/09/01 04:08:09;;;;;;;;;;;;;;;24.51;59.91;99940.97;7315027;19;129833;-38
2022/09/01 04:10:37;;;;;;;;;;;;;;;24.52;60.21;99942.63;7313957;19;130361;-38
2022/09/01 04:13:03;;;;;;;;;;;;;;;24.54;60.02;99943.31;7313062;19;129049;-37
2022/09/01 04:15:28;;;;;;;;;;;;;;;24.54;60.38;99938.88;7314561;19;129084;-36
2022/09/01 04:18:09;;;;;;;;;;;;;;;24.53;59.84;99939.84;7312542;19;129471;-38
2022/09/01 04:20:48;;;;;;;;;;;;;;;24.54;59.91;99940.69;7314133;19;131477;-38
2022/09/01 04:23:19;;;;;;;;;;;;;;;24.53;60.06;99941.66;7312057;19;128887;-38
2022/09/01 04:25:48;;;;;;;;;;;;;;;24.52;59.90;99942.63;7314539;19;129258;-38
2022/09/01 04:28:21;;;;;;;;;;;;;;;24.51;60.14;99936.53;7312705;19;130901;-38
2022/09/01 04:30:48;;;;;;;;;;;;;;;24.52;60.54;99937.38;7313435;19;131448;-38
2022/09/01 04:33:16;;;;;;;;;;;;;;;24.52;60.37;99940.81;7311704;19;129832;-38
2022/09/01 04:35:41;;;;;;;;;;;;;;;24.48;60.64;99936.03;7312172;19;129779;-38
2022/09/01 04:38:07;;;;;;;;;;;;;;;24.52;60.12;99945.25;7313811;19;130132;-38
2022/09/01 04:40:37;;;;;;;;;;;;;;;24.52;59.76;99942.63;7312629;19;129484;-38
2022/09/01 04:43:02;;;;;;;;;;;;;;;24.44;60.28;99938.94;7310211;19;129500;-39
2022/09/01 04:45:28;;;;;;;;;;;;;;;24.52;59.90;99953.13;7313006;19;129720;-38
2022/09/01 04:47:54;;;;;;;;;;;;;;;24.51;60.09;99954.13;7313501;19;129269;-38
2022/09/01 04:50:20;;;;;;;;;;;;;;;24.49;59.94;99952.44;7313780;19;129910;-38
2022/09/01 04:52:49;;;;;;;;;;;;;;;24.51;60.26;99957.56;7311310;19;129354;-38
2022/09/01 04:55:17;;;;;;;;;;;;;;;24.52;59.78;99953.13;7313728;19;129845;-36
2022/09/01 04:57:46;;;;;;;;;;;;;;;24.52;60.21;99955.75;7308788;19;130518;-38
2022/09/01 05:00:21;;;;;;;;;;;;;;;24.51;60.51;99960.19;7312649;19;130416;-37
2022/09/01 05:02:46;;;;;;;;;;;;;;;24.51;60.02;99959.38;7312929;19;129231;-38
2022/09/01 05:05:11;;;;;;;;;;;;;;;24.51;60.15;99962.00;7318473;19;128926;-35
2022/09/01 05:07:37;;;;;;;;;;;;;;;24.51;59.74;99951.50;7318126;19;130354;-38
2022/09/01 05:10:02;;;;;;;;;;;;;;;24.52;60.41;99961.03;7318795;19;130327;-38
2022/09/01 05:12:28;;;;;;;;;;;;;;;24.51;60.19;99962.00;7320370;19;129147;-38
2022/09/01 05:14:54;;;;;;;;;;;;;;;24.52;60.32;99972.38;7318398;19;130139;-37
2022/09/01 05:17:20;;;;;;;;;;;;;;;24.51;60.06;99964.63;7318450;19;130883;-38
2022/09/01 05:19:47;;;;;;;;;;;;;;;24.52;60.76;99955.75;7317019;19;129412;-37
2022/09/01 05:22:14;;;;;;;;;;;;;;;24.50;60.06;99958.53;7317217;19;130357;-37
2022/09/01 05:24:39;;;;;;;;;;;;;;;24.51;60.37;99964.63;7320359;19;128869;-38
2022/09/01 05:27:05;;;;;;;;;;;;;;;24.49;59.99;99962.16;7318714;19;129997;-36
2022/09/01 05:29:31;;;;;;;;;;;;;;;24.49;59.77;99965.59;7318783;19;129343;-39
2022/09/01 05:31:57;;;;;;;;;;;;;;;24.49;59.72;99962.97;7317220;19;129669;-38
2022/09/01 05:34:26;;;;;;;;;;;;;;;24.49;59.81;99957.72;7319919;19;129613;-39
2022/09/01 05:36:53;;;;;;;;;;;;;;;24.49;60.49;99956.91;7316744;19;130336;-38
2022/09/01 05:39:19;;;;;;;;;;;;;;;24.49;59.79;99959.53;7317836;19;129321;-37
2022/09/01 05:41:46;;;;;;;;;;;;;;;24.51;60.26;99969.91;7318375;19;128856;-38
2022/09/01 05:44:12;;;;;;;;;;;;;;;24.49;60.09;99976.09;7319385;19;128808;-38
2022/09/01 05:46:39;;;;;;;;;;;;;;;24.51;60.26;99969.91;7318633;19;130221;-39
2022/09/01 05:49:05;;;;;;;;;;;;;;;24.49;59.94;99968.22;7319837;19;130472;-38
2022/09/01 05:51:33;;;;;;;;;;;;;;;24.52;60.20;99976.78;7318813;19;128933;-38
2022/09/01 05:53:58;;;;;;;;;;;;;;;24.49;60.22;99973.47;7319606;19;129362;-38
2022/09/01 05:56:25;;;;;;;;;;;;;;;24.48;60.41;99969.22;7318444;19;129198;-35
2022/09/01 05:58:52;;;;;;;;;;;;;;;24.49;60.46;99970.84;7318563;19;129145;-37
2022/09/01 06:01:25;;;;;;;;;;;;;;;24.40;60.49;99953.38;7316825;19;130351;-37
2022/09/01 06:03:54;;;;;;;;;;;;;;;24.49;60.60;99967.41;7319072;19;128708;-37
2022/09/01 06:06:21;;;;;;;;;;;;;;;24.51;59.73;99967.25;7316574;19;130771;-38
2022/09/01 06:08:48;;;;;;;;;;;;;;;24.51;60.24;99975.16;7318762;19;130350;-37
2022/09/01 06:11:16;;;;;;;;;;;;;;;24.49;60.25;99972.69;7318893;19;129758;-37
2022/09/01 06:13:41;;;;;;;;;;;;;;;24.51;60.31;99980.41;7317266;19;129335;-38
2022/09/01 06:16:08;;;;;;;;;;;;;;;24.49;60.15;99973.47;7315774;19;130293;-38
2022/09/01 06:18:35;;;;;;;;;;;;;;;24.49;60.59;99972.69;7316188;19;130345;-38
2022/09/01 06:21:02;;;;;;;;;;;;;;;24.48;59.90;99971.84;7318477;19;129695;-35
2022/09/01 06:23:28;;;;;;;;;;;;;;;24.49;59.96;99984.00;7316623;19;129509;-38
2022/09/01 06:25:54;;;;;;;;;;;;;;;24.49;60.11;99981.38;7317391;19;130120;-38
2022/09/01 06:28:22;;;;;;;;;;;;;;;24.49;60.11;99976.09;7318473;19;130282;-37
2022/09/01 06:30:47;;;;;;;;;;;;;;;24.48;60.25;99971.84;7318518;19;129143;-38
2022/09/01 06:33:13;;;;;;;;;;;;;;;24.48;60.44;99982.34;7317255;19;128848;-38
2022/09/01 06:35:40;;;;;;;;;;;;;;;24.48;60.61;99977.09;7316523;19;130156;-38
2022/09/01 06:38:06;;;;;;;;;;;;;;;24.48;59.68;99982.34;7317696;19;130417;-38
2022/09/01 06:40:32;;;;;;;;;;;;;;;24.48;60.11;99979.72;7316921;19;128815;-37
2022/09/01 06:42:59;;;;;;;;;;;;;;;24.46;60.51;99976.41;7317263;19;129085;-37
2022/09/01 06:45:25;;;;;;;;;;;;;;;24.46;60.11;99981.66;7317426;19;130011;-37
2022/09/01 06:47:51;;;;;;;;;;;;;;;24.49;60.22;99983.19;7318151;19;130980;-37
2022/09/01 06:50:18;;;;;;;;;;;;;;;24.48;60.61;99980.72;7317111;19;129191;-37
2022/09/01 06:52:44;;;;;;;;;;;;;;;24.42;60.23;99982.97;7317546;19;129484;-38
2022/09/01 06:55:11;;;;;;;;;;;;;;;24.49;60.34;99986.63;7317818;19;129549;-37
2022/09/01 06:57:37;;;;;;;;;;;;;;;24.49;60.49;99994.50;7315022;19;129145;-37
2022/09/01 07:00:16;;;;;;;;;;;;;;;24.49;59.99;99989.25;7314823;19;128929;-38
2022/09/01 07:02:43;;;;;;;;;;;;;;;24.48;60.52;99994.66;7315787;19;130319;-38
2022/09/01 07:05:08;;;;;;;;;;;;;;;24.48;60.57;99998.13;7316710;19;129340;-38
2022/09/01 07:07:34;;;;;;;;;;;;;;;24.46;59.93;99994.81;7314320;19;129486;-39
2022/09/01 07:09:59;;;;;;;;;;;;;;;24.48;59.76;100001.75;7316955;19;128894;-38
2022/09/01 07:12:24;;;;;;;;;;;;;;;24.46;59.94;99989.56;7316535;19;129423;-38
2022/09/01 07:14:51;;;;;;;;;;;;;;;24.48;60.83;99998.13;7316989;19;130952;-37
2022/09/01 07:17:16;;;;;;;;;;;;;;;24.39;60.11;99985.84;7311629;19;131181;-38
2022/09/01 07:19:41;;;;;;;;;;;;;;;24.48;60.64;100003.38;7314553;19;129148;-39
2022/09/01 07:22:07;;;;;;;;;;;;;;;24.38;59.92;99992.09;7316170;19;130313;-38
2022/09/01 07:24:33;;;;;;;;;;;;;;;24.48;59.99;100007.00;7317014;19;129609;-38
2022/09/01 07:26:58;;;;;;;;;;;;;;;24.47;60.27;100006.16;7314323;19;131024;-38
2022/09/01 07:29:24;;;;;;;;;;;;;;;24.46;60.06;100009.78;7316262;19;128799;-38
2022/09/01 07:31:51;;;;;;;;;;;;;;;24.48;60.37;100013.91;7315878;19;129819;-38
2022/09/01 07:34:17;;;;;;;;;;;;;;;24.48;60.22;100007.00;7317223;19;130107;-39
2022/09/01 07:36:43;;;;;;;;;;;;;;;24.46;60.60;100002.69;7314957;19;129304;-38
2022/09/01 07:39:09;;;;;;;;;;;;;;;24.47;60.53;100006.16;7315460;19;129556;-38
2022/09/01 07:41:34;;;;;;;;;;;;;;;24.48;60.16;100004.38;7315747;19;128909;-38
2022/09/01 07:44:01;;;;;;;;;;;;;;;24.41;60.17;100001.50;7315356;19;129398;-37
2022/09/01 07:46:27;;;;;;;;;;;;;;;24.46;60.01;100010.59;7314187;19;131363;-37
2022/09/01 07:48:53;;;;;;;;;;;;;;;24.45;60.58;100008.94;7316381;19;128847;-37
2022/09/01 07:51:24;;;;;;;;;;;;;;;24.46;60.53;100009.78;7315900;19;128746;-37
2022/09/01 07:53:49;;;;;;;;;;;;;;;24.46;60.74;100005.31;7314644;19;130685;-37
2022/09/01 07:56:17;;;;;;;;;;;;;;;24.46;60.41;100005.31;7314930;19;130364;-37
2022/09/01 07:58:43;;;;;;;;;;;;;;;24.47;60.41;100011.41;7314746;19;129393;-37
2022/09/01 08:01:10;;;;;;;;;;;;;;;24.48;60.64;100012.25;7315958;19;129521;-38
2022/09/01 08:03:35;;;;;;;;;;;;;;;24.47;59.75;100016.69;7314344;19;129201;-38
2022/09/01 08:06:02;;;;;;;;;;;;;;;24.46;59.93;100015.84;7314807;19;130368;-37
2022/09/01 08:08:28;;;;;;;;;;;;;;;24.45;59.96;100019.47;7315411;19;128844;-37
2022/09/01 08:10:53;;;;;;;;;;;;;;;24.38;60.24;100002.63;7316211;19;129572;-38
2022/09/01 08:13:19;;;;;;;;;;;;;;;24.47;60.53;100016.69;7314962;19;130348;-38
2022/09/01 08:15:44;;;;;;;;;;;;;;;24.46;60.35;100010.59;7314938;19;129580;-37
2022/09/01 08:18:10;;;;;;;;;;;;;;;24.46;60.76;100013.22;7315582;19;129450;-38
2022/09/01 08:20:38;;;;;;;;;;;;;;;24.46;60.65;100010.59;7315201;19;128770;-38
2022/09/01 08:23:04;;;;;;;;;;;;;;;24.46;60.01;100021.09;7314571;19;130149;-38
2022/09/01 08:25:30;;;;;;;;;;;;;;;24.47;60.49;100021.94;7315489;19;129117;-38
2022/09/01 08:27:55;;;;;;;;;;;;;;;24.45;60.28;100019.47;7315211;19;128915;-38
2022/09/01 08:30:22;;;;;;;;;;;;;;;24.45;60.79;100021.25;7313131;19;129097;-38
2022/09/01 08:32:48;;;;;;;;;;;;;;;24.46;60.82;100020.28;7313037;19;129548;-37
2022/09/01 08:35:15;;;;;;;;;;;;;;;24.45;59.97;100023.88;7314015;19;129468;-38
2022/09/01 08:37:41;;;;;;;;;;;;;;;24.47;60.03;100021.94;7312190;19;129090;-38
2022/09/01 08:40:07;;;;;;;;;;;;;;;24.46;60.17;100031.59;7309919;19;129259;-38
2022/09/01 08:42:51;;;;;;;;;;;;;;;24.44;59.83;100030.13;7313356;19;130160;-37
2022/09/01 08:45:27;;;;;;;;;;;;;;;24.44;59.99;100023.03;7313691;19;130514;-38
2022/09/01 08:47:54;;;;;;;;;;;;;;;24.46;60.03;100022.91;7314999;19;129294;-37
2022/09/01 08:50:20;;;;;;;;;;;;;;;24.48;60.11;100025.41;7314463;19;129416;-37
2022/09/01 08:52:53;;;;;;;;;;;;;;;24.45;60.51;100029.97;7313877;19;131585;-38
2022/09/01 08:55:24;;;;;;;;;;;;;;;24.47;60.43;100027.19;7313836;19;131078;-38
2022/09/01 08:57:51;;;;;;;;;;;;;;;24.45;60.25;100024.72;7311403;19;128857;-37
2022/09/01 09:00:19;;;;;;;;;;;;;;;24.45;60.17;100027.34;7311280;19;128952;-38
2022/09/01 09:02:44;;;;;;;;;;;;;;;24.45;60.21;100022.09;7312161;19;130016;-38
2022/09/01 09:05:28;;;;;;;;;;;;;;;24.39;60.12;100016.59;7312358;19;130157;-37
2022/09/01 09:08:11;;;;;;;;;;;;;;;24.45;60.77;100029.97;7313675;19;128819;-37
2022/09/01 09:10:42;;;;;;;;;;;;;;;24.46;60.13;100026.34;7313426;19;129127;-37
2022/09/01 09:13:12;;;;;;;;;;;;;;;24.46;60.51;100033.44;7313419;19;130180;-38
2022/09/01 09:15:40;;;;;;;;;;;;;;;24.46;60.22;100034.25;7312356;19;130113;-37
2022/09/01 09:18:24;;;;;;;;;;;;;;;24.45;60.53;100027.34;7312218;19;129137;-38
2022/09/01 09:20:50;;;;;;;;;;;;;;;24.45;60.89;100035.22;7313172;19;129675;-37
2022/09/01 09:23:28;;;;;;;;;;;;;;;24.43;59.91;100031.91;7312311;19;130223;-38
2022/09/01 09:25:54;;;;;;;;;;;;;;;24.44;60.13;100033.56;7312445;19;129523;-38
2022/09/01 09:28:19;;;;;;;;;;;;;;;24.44;60.54;100033.56;7313585;19;129323;-38
2022/09/01 09:30:44;;;;;;;;;;;;;;;24.44;60.23;100030.94;7312951;19;129567;-38
2022/09/01 09:33:29;;;;;;;;;;;;;;;24.45;60.80;100027.34;7312481;19;129948;-38
2022/09/01 09:36:14;;;;;;;;;;;;;;;24.46;60.23;100025.56;7312600;19;130308;-38
2022/09/01 09:38:40;;;;;;;;;;;;;;;24.44;60.55;100023.03;7312514;19;129631;-38
2022/09/01 09:41:05;;;;;;;;;;;;;;;24.35;60.90;100005.53;7312905;19;129336;-37
2022/09/01 09:43:50;;;;;;;;;;;;;;;24.44;60.24;100014.34;7312910;19;130244;-38
2022/09/01 09:46:21;;;;;;;;;;;;;;;24.45;60.14;100026.50;7310686;19;129122;-37
2022/09/01 09:48:46;;;;;;;;;;;;;;;24.45;60.23;100019.47;7311751;19;128862;-38
2022/09/01 09:51:18;;;;;;;;;;;;;;;24.44;60.22;100022.25;7317103;19;129596;-37
2022/09/01 09:53:44;;;;;;;;;;;;;;;24.45;60.63;100014.19;7318554;19;130433;-37
2022/09/01 09:56:20;;;;;;;;;;;;;;;24.37;60.70;99997.50;7318428;19;129699;-37
2022/09/01 09:58:46;;;;;;;;;;;;;;;24.43;60.77;100005.63;7319623;19;129276;-38
2022/09/01 10:01:28;;;;;;;;;;;;;;;24.45;60.30;100014.19;7320280;19;129123;-38
2022/09/01 10:03:55;;;;;;;;;;;;;;;24.44;60.51;100012.53;7319249;19;129256;-37
2022/09/01 10:06:34;;;;;;;;;;;;;;;24.43;60.64;100013.50;7317751;19;130713;-38
2022/09/01 10:09:02;;;;;;;;;;;;;;;24.44;60.35;100017.78;7317961;19;128875;-37
2022/09/01 10:11:29;;;;;;;;;;;;;;;24.43;60.89;100008.25;7318721;19;129260;-38
2022/09/01 10:13:55;;;;;;;;;;;;;;;24.36;60.65;99998.50;7318764;19;129535;-38
2022/09/01 10:16:25;;;;;;;;;;;;;;;24.44;60.12;100007.28;7316892;19;130381;-37
2022/09/01 10:18:51;;;;;;;;;;;;;;;24.45;60.78;100014.19;7317648;19;128955;-38
2022/09/01 10:21:25;;;;;;;;;;;;;;;24.43;60.69;100016.13;7317960;19;128927;-37
2022/09/01 10:23:50;;;;;;;;;;;;;;;24.45;60.36;100014.19;7318312;19;129176;-38
2022/09/01 10:26:18;;;;;;;;;;;;;;;24.44;60.88;100017.78;7317755;19;130395;-38
2022/09/01 10:28:52;;;;;;;;;;;;;;;24.44;60.42;100016.97;7318452;19;128872;-37
2022/09/01 10:31:18;;;;;;;;;;;;;;;24.44;61.06;100017.78;7317884;19;129100;-38
2022/09/01 10:33:44;;;;;;;;;;;;;;;24.44;60.68;100014.34;7316944;19;130335;-38
2022/09/01 10:36:09;;;;;;;;;;;;;;;24.42;60.67;100014.50;7315747;19;130447;-37
2022/09/01 10:38:35;;;;;;;;;;;;;;;24.33;60.38;99996.13;7318068;19;128893;-38
2022/09/01 10:41:06;;;;;;;;;;;;;;;24.43;60.78;100010.88;7317144;19;129412;-38
2022/09/01 10:43:34;;;;;;;;;;;;;;;24.43;60.74;100005.63;7317973;19;130073;-37
2022/09/01 10:46:06;;;;;;;;;;;;;;;24.43;60.74;100013.50;7316835;19;131223;-37
2022/09/01 10:48:34;;;;;;;;;;;;;;;24.44;60.86;100006.47;7318508;19;129108;-38
2022/09/01 10:51:11;;;;;;;;;;;;;;;24.44;60.79;100007.28;7316595;19;129406;-37
2022/09/01 10:53:50;;;;;;;;;;;;;;;24.44;61.08;100007.28;7317995;19;129022;-37
2022/09/01 10:56:18;;;;;;;;;;;;;;;24.43;60.33;100005.63;7316175;19;130269;-37
2022/09/01 10:59:02;;;;;;;;;;;;;;;24.43;60.69;100002.16;7316326;19;129029;-38
2022/09/01 11:01:39;;;;;;;;;;;;;;;24.43;60.40;100000.38;7314458;19;129096;-38
2022/09/01 11:04:08;;;;;;;;;;;;;;;24.44;60.44;100002.00;7316405;19;129290;-37
2022/09/01 11:06:40;;;;;;;;;;;;;;;24.44;60.40;99993.31;7315772;19;130698;-38
2022/09/01 11:09:06;;;;;;;;;;;;;;;24.43;60.76;99997.75;7316673;19;129530;-38
2022/09/01 11:11:54;;;;;;;;;;;;;;;24.44;61.12;99995.94;7316062;19;129016;-37
2022/09/01 11:14:23;;;;;;;;;;;;;;;24.45;61.08;99990.53;7317454;19;130280;-38
2022/09/01 11:17:07;;;;;;;;;;;;;;;24.42;61.24;99990.84;7315465;19;130310;-38
2022/09/01 11:19:36;;;;;;;;;;;;;;;24.42;60.57;99996.09;7315680;19;128965;-38
2022/09/01 11:22:04;;;;;;;;;;;;;;;24.44;60.81;99981.00;7315134;19;129632;-37
2022/09/01 11:24:41;;;;;;;;;;;;;;;24.43;61.22;99984.59;7313821;19;129061;-38
2022/09/01 11:27:08;;;;;;;;;;;;;;;24.44;61.00;99990.69;7314488;19;129310;-38
2022/09/01 11:29:54;;;;;;;;;;;;;;;24.43;60.97;99984.59;7315814;19;128911;-37
2022/09/01 11:32:21;;;;;;;;;;;;;;;24.43;61.15;99989.84;7316594;19;129397;-38
2022/09/01 11:34:49;;;;;;;;;;;;;;;24.43;60.87;99983.75;7316744;19;129316;-38
2022/09/01 11:37:15;;;;;;;;;;;;;;;24.44;60.56;99986.25;7313118;19;130302;-38
2022/09/01 11:39:45;;;;;;;;;;;;;;;24.44;60.55;99990.69;7313683;19;128907;-37
2022/09/01 11:42:10;;;;;;;;;;;;;;;24.36;61.01;99978.28;7316246;19;129012;-37
2022/09/01 11:44:50;;;;;;;;;;;;;;;24.43;60.65;99986.41;7312592;19;129252;-38
2022/09/01 11:47:20;;;;;;;;;;;;;;;24.35;60.56;99967.91;7307740;19;129295;-37
2022/09/01 11:49:50;;;;;;;;;;;;;;;24.48;61.24;99984.97;7316355;19;129147;-38
2022/09/01 11:52:17;;;;;;;;;;;;;;;24.36;61.17;99973.03;7315204;19;130172;-37
2022/09/01 11:54:45;;;;;;;;;;;;;;;24.42;61.14;99988.22;7314777;19;129426;-37
2022/09/01 11:57:25;;;;;;;;;;;;;;;24.43;60.80;99984.59;7313470;19;131330;-38
2022/09/01 11:59:51;;;;;;;;;;;;;;;24.33;60.88;99973.31;7314934;19;129133;-37
2022/09/01 12:02:17;;;;;;;;;;;;;;;24.41;60.56;99983.91;7314774;19;128996;-38
2022/09/01 12:04:43;;;;;;;;;;;;;;;24.42;60.96;99982.13;7314758;19;129654;-38
2022/09/01 12:07:11;;;;;;;;;;;;;;;24.42;61.04;99982.97;7312874;19;131006;-37
2022/09/01 12:09:45;;;;;;;;;;;;;;;24.43;61.14;99989.03;7315406;19;128860;-38
2022/09/01 12:12:28;;;;;;;;;;;;;;;24.43;61.23;99974.09;7314577;19;129089;-38
2022/09/01 12:15:05;;;;;;;;;;;;;;;24.41;60.90;99978.66;7313329;19;129086;-38
2022/09/01 12:17:31;;;;;;;;;;;;;;;24.42;61.20;99980.34;7312729;19;130917;-38
2022/09/01 12:20:16;;;;;;;;;;;;;;;24.42;61.22;99974.25;7312743;19;128737;-38
2022/09/01 12:22:41;;;;;;;;;;;;;;;24.42;61.28;99966.34;7314561;19;129340;-37
2022/09/01 12:25:17;;;;;;;;;;;;;;;24.42;60.99;99966.34;7314760;19;130773;-38
2022/09/01 12:27:42;;;;;;;;;;;;;;;24.41;61.07;99973.41;7312179;19;129569;-38
2022/09/01 12:30:08;;;;;;;;;;;;;;;24.41;60.67;99970.78;7314573;19;129044;-38
2022/09/01 12:32:33;;;;;;;;;;;;;;;24.41;60.86;99968.16;7313719;19;129060;-38
2022/09/01 12:35:00;;;;;;;;;;;;;;;24.41;61.43;99960.25;7314771;19;130192;-37
2022/09/01 12:37:26;;;;;;;;;;;;;;;24.42;60.73;99961.09;7312905;19;130427;-38
2022/09/01 12:39:56;;;;;;;;;;;;;;;24.42;61.02;99963.72;7313095;19;128916;-38